sensor_id;sensor_type;location;lat;lon;timestamp;P1;durP1;ratioP1;P2;durP2;ratioP2
55270;SDS011;41132;47.162;9.470;2022-12-18T01:55:52;12.73;;;6.53;;
55270;SDS011;41132;47.162;9.470;2022-12-18T01:58:20;12.10;;;5.88;;
55270;SDS011;41132;47.162;9.470;2022-12-18T02:00:53;10.18;;;6.05;;
55270;SDS011;41132;47.162;9.470;2022-12-18T02:03:19;11.77;;;5.85;;
55270;SDS011;41132;47.162;9.470;2022-12-18T02:05:47;14.18;;;6.45;;
55270;SDS011;41132;47.162;9.470;2022-12-18T02:08:22;13.45;;;6.40;;
55270;SDS011;41132;47.162;9.470;2022-12-18T02:13:27;10.68;;;5.78;;
55270;SDS011;41132;47.162;9.470;2022-12-18T02:21:25;11.52;;;6.45;;
55270;SDS011;41132;47.162;9.470;2022-12-18T02:31:49;12.55;;;6.82;;
55270;SDS011;41132;47.162;9.470;2022-12-18T02:36:53;10.70;;;5.93;;
55270;SDS011;41132;47.162;9.470;2022-12-18T02:39:21;12.45;;;6.15;;
55270;SDS011;41132;47.162;9.470;2022-12-18T02:41:48;12.93;;;6.43;;
55270;SDS011;41132;47.162;9.470;2022-12-18T02:44:15;15.07;;;7.57;;
55270;SDS011;41132;47.162;9.470;2022-12-18T02:46:41;13.25;;;6.50;;
55270;SDS011;41132;47.162;9.470;2022-12-18T02:59:47;12.30;;;6.88;;
55270;SDS011;41132;47.162;9.470;2022-12-18T03:02:27;12.57;;;6.18;;
55270;SDS011;41132;47.162;9.470;2022-12-18T03:05:05;12.55;;;6.75;;
55270;SDS011;41132;47.162;9.470;2022-12-18T03:12:49;11.27;;;6.05;;
55270;SDS011;41132;47.162;9.470;2022-12-18T03:15:19;14.57;;;7.18;;
55270;SDS011;41132;47.162;9.470;2022-12-18T03:17:52;13.52;;;7.22;;
55270;SDS011;41132;47.162;9.470;2022-12-18T03:20:24;13.07;;;7.43;;
55270;SDS011;41132;47.162;9.470;2022-12-18T03:22:55;15.65;;;7.95;;
55270;SDS011;41132;47.162;9.470;2022-12-18T03:25:25;16.15;;;6.40;;
55270;SDS011;41132;47.162;9.470;2022-12-18T03:27:54;13.02;;;6.10;;
55270;SDS011;41132;47.162;9.470;2022-12-18T03:30:23;13.82;;;7.95;;
55270;SDS011;41132;47.162;9.470;2022-12-18T03:38:01;16.98;;;7.97;;
55270;SDS011;41132;47.162;9.470;2022-12-18T03:40:29;15.73;;;8.02;;
55270;SDS011;41132;47.162;9.470;2022-12-18T03:43:07;16.02;;;7.95;;
55270;SDS011;41132;47.162;9.470;2022-12-18T03:45:37;13.98;;;8.25;;
55270;SDS011;41132;47.162;9.470;2022-12-18T03:55:52;19.38;;;9.55;;
55270;SDS011;41132;47.162;9.470;2022-12-18T03:58:19;15.27;;;8.63;;
55270;SDS011;41132;47.162;9.470;2022-12-18T04:00:48;15.18;;;8.50;;
55270;SDS011;41132;47.162;9.470;2022-12-18T04:03:16;16.20;;;8.35;;
55270;SDS011;41132;47.162;9.470;2022-12-18T04:08:19;14.27;;;8.50;;
55270;SDS011;41132;47.162;9.470;2022-12-18T04:10:46;16.33;;;8.63;;
55270;SDS011;41132;47.162;9.470;2022-12-18T04:36:28;39.83;;;10.60;;
55270;SDS011;41132;47.162;9.470;2022-12-18T04:38:54;21.80;;;12.48;;
55270;SDS011;41132;47.162;9.470;2022-12-18T04:49:05;27.48;;;11.02;;
55270;SDS011;41132;47.162;9.470;2022-12-18T05:53:57;36.97;;;13.55;;
55270;SDS011;41132;47.162;9.470;2022-12-18T05:56:22;40.38;;;10.75;;
55270;SDS011;41132;47.162;9.470;2022-12-18T05:58:50;28.83;;;10.77;;
55270;SDS011;41132;47.162;9.470;2022-12-18T06:01:18;76.55;;;11.27;;
55270;SDS011;41132;47.162;9.470;2022-12-18T06:03:46;40.33;;;9.68;;
55270;SDS011;41132;47.162;9.470;2022-12-18T06:06:21;42.63;;;10.48;;
55270;SDS011;41132;47.162;9.470;2022-12-18T06:08:52;18.38;;;8.98;;
55270;SDS011;41132;47.162;9.470;2022-12-18T06:11:19;43.25;;;13.65;;
55270;SDS011;41132;47.162;9.470;2022-12-18T06:13:46;35.10;;;10.98;;
55270;SDS011;41132;47.162;9.470;2022-12-18T06:16:15;51.33;;;11.00;;
55270;SDS011;41132;47.162;9.470;2022-12-18T06:18:40;23.33;;;10.43;;
55270;SDS011;41132;47.162;9.470;2022-12-18T06:21:05;26.80;;;8.52;;
55270;SDS011;41132;47.162;9.470;2022-12-18T06:23:31;21.77;;;9.02;;
55270;SDS011;41132;47.162;9.470;2022-12-18T06:25:56;49.70;;;11.00;;
55270;SDS011;41132;47.162;9.470;2022-12-18T06:28:22;21.08;;;8.95;;
55270;SDS011;41132;47.162;9.470;2022-12-18T06:30:47;33.85;;;9.45;;
55270;SDS011;41132;47.162;9.470;2022-12-18T06:33:14;20.83;;;11.25;;
55270;SDS011;41132;47.162;9.470;2022-12-18T06:35:40;22.55;;;9.25;;
55270;SDS011;41132;47.162;9.470;2022-12-18T06:38:06;18.05;;;9.15;;
55270;SDS011;41132;47.162;9.470;2022-12-18T06:40:32;41.90;;;9.27;;
55270;SDS011;41132;47.162;9.470;2022-12-18T06:42:57;22.15;;;9.50;;
55270;SDS011;41132;47.162;9.470;2022-12-18T06:45:23;32.60;;;9.98;;
55270;SDS011;41132;47.162;9.470;2022-12-18T06:47:49;14.98;;;8.18;;
55270;SDS011;41132;47.162;9.470;2022-12-18T06:50:14;23.58;;;9.75;;
55270;SDS011;41132;47.162;9.470;2022-12-18T06:52:40;17.95;;;9.20;;
55270;SDS011;41132;47.162;9.470;2022-12-18T06:55:08;41.55;;;9.07;;
55270;SDS011;41132;47.162;9.470;2022-12-18T06:57:34;15.70;;;9.63;;
55270;SDS011;41132;47.162;9.470;2022-12-18T06:59:59;18.40;;;8.98;;
55270;SDS011;41132;47.162;9.470;2022-12-18T07:05:00;13.05;;;7.63;;
55270;SDS011;41132;47.162;9.470;2022-12-18T07:07:25;34.92;;;9.93;;
55270;SDS011;41132;47.162;9.470;2022-12-18T07:09:51;22.00;;;8.05;;
55270;SDS011;41132;47.162;9.470;2022-12-18T07:12:16;21.10;;;10.68;;
55270;SDS011;41132;47.162;9.470;2022-12-18T07:14:42;14.35;;;8.02;;
55270;SDS011;41132;47.162;9.470;2022-12-18T07:17:07;12.95;;;9.00;;
55270;SDS011;41132;47.162;9.470;2022-12-18T07:19:34;15.75;;;9.68;;
55270;SDS011;41132;47.162;9.470;2022-12-18T07:21:59;42.42;;;9.88;;
55270;SDS011;41132;47.162;9.470;2022-12-18T07:34:46;18.52;;;8.75;;
55270;SDS011;41132;47.162;9.470;2022-12-18T07:37:11;24.23;;;11.98;;
55270;SDS011;41132;47.162;9.470;2022-12-18T08:48:15;19.88;;;10.00;;
55270;SDS011;41132;47.162;9.470;2022-12-18T09:13:26;20.65;;;9.65;;
55270;SDS011;41132;47.162;9.470;2022-12-18T09:15:52;15.18;;;8.07;;
55270;SDS011;41132;47.162;9.470;2022-12-18T09:18:20;15.32;;;8.05;;
55270;SDS011;41132;47.162;9.470;2022-12-18T09:20:47;20.00;;;9.20;;
55270;SDS011;41132;47.162;9.470;2022-12-18T09:23:12;31.17;;;11.25;;
55270;SDS011;41132;47.162;9.470;2022-12-18T09:25:39;14.93;;;8.75;;
55270;SDS011;41132;47.162;9.470;2022-12-18T09:28:06;15.90;;;8.80;;
55270;SDS011;41132;47.162;9.470;2022-12-18T09:30:39;22.75;;;9.95;;
55270;SDS011;41132;47.162;9.470;2022-12-18T09:33:06;23.05;;;9.65;;
55270;SDS011;41132;47.162;9.470;2022-12-18T09:35:32;22.65;;;9.88;;
55270;SDS011;41132;47.162;9.470;2022-12-18T09:38:01;13.25;;;7.93;;
55270;SDS011;41132;47.162;9.470;2022-12-18T09:40:27;15.20;;;8.95;;
55270;SDS011;41132;47.162;9.470;2022-12-18T09:43:00;16.35;;;10.55;;
55270;SDS011;41132;47.162;9.470;2022-12-18T09:45:37;18.45;;;10.77;;
55270;SDS011;41132;47.162;9.470;2022-12-18T09:48:10;17.58;;;9.52;;
55270;SDS011;41132;47.162;9.470;2022-12-18T09:50:43;14.90;;;9.25;;
55270;SDS011;41132;47.162;9.470;2022-12-18T09:53:12;18.90;;;10.65;;
55270;SDS011;41132;47.162;9.470;2022-12-18T09:55:44;15.82;;;9.73;;
55270;SDS011;41132;47.162;9.470;2022-12-18T09:58:24;14.02;;;8.30;;
55270;SDS011;41132;47.162;9.470;2022-12-18T10:00:55;19.17;;;10.40;;
55270;SDS011;41132;47.162;9.470;2022-12-18T10:03:20;16.95;;;8.15;;
55270;SDS011;41132;47.162;9.470;2022-12-18T10:13:57;19.80;;;11.82;;
55270;SDS011;41132;47.162;9.470;2022-12-18T10:19:17;17.80;;;10.65;;
55270;SDS011;41132;47.162;9.470;2022-12-18T10:22:02;16.23;;;9.65;;
55270;SDS011;41132;47.162;9.470;2022-12-18T10:24:34;14.25;;;9.75;;
55270;SDS011;41132;47.162;9.470;2022-12-18T10:27:14;18.20;;;10.18;;
55270;SDS011;41132;47.162;9.470;2022-12-18T10:29:45;17.15;;;10.68;;
55270;SDS011;41132;47.162;9.470;2022-12-18T10:32:15;16.92;;;9.55;;
55270;SDS011;41132;47.162;9.470;2022-12-18T10:34:45;15.55;;;9.43;;
55270;SDS011;41132;47.162;9.470;2022-12-18T10:37:19;15.70;;;8.80;;
55270;SDS011;41132;47.162;9.470;2022-12-18T10:40:04;17.42;;;9.73;;
55270;SDS011;41132;47.162;9.470;2022-12-18T10:42:40;16.93;;;9.90;;
55270;SDS011;41132;47.162;9.470;2022-12-18T10:45:12;18.70;;;9.93;;
55270;SDS011;41132;47.162;9.470;2022-12-18T10:47:49;18.38;;;10.43;;
55270;SDS011;41132;47.162;9.470;2022-12-18T10:50:34;17.10;;;10.77;;
55270;SDS011;41132;47.162;9.470;2022-12-18T10:53:03;17.20;;;10.18;;
55270;SDS011;41132;47.162;9.470;2022-12-18T10:55:31;14.57;;;9.80;;
55270;SDS011;41132;47.162;9.470;2022-12-18T11:01:02;14.93;;;9.13;;
55270;SDS011;41132;47.162;9.470;2022-12-18T11:06:03;16.45;;;10.30;;
55270;SDS011;41132;47.162;9.470;2022-12-18T11:11:27;17.23;;;10.52;;
55270;SDS011;41132;47.162;9.470;2022-12-18T11:16:53;16.77;;;10.05;;
55270;SDS011;41132;47.162;9.470;2022-12-18T11:21:50;14.05;;;9.13;;
55270;SDS011;41132;47.162;9.470;2022-12-18T11:24:25;16.08;;;10.55;;
55270;SDS011;41132;47.162;9.470;2022-12-18T11:26:55;17.83;;;9.73;;
55270;SDS011;41132;47.162;9.470;2022-12-18T11:29:23;16.35;;;9.80;;
55270;SDS011;41132;47.162;9.470;2022-12-18T11:32:05;18.15;;;10.05;;
55270;SDS011;41132;47.162;9.470;2022-12-18T11:35:33;16.90;;;9.35;;
55270;SDS011;41132;47.162;9.470;2022-12-18T11:37:56;29.15;;;9.02;;
55270;SDS011;41132;47.162;9.470;2022-12-18T11:40:37;16.17;;;9.68;;
55270;SDS011;41132;47.162;9.470;2022-12-18T11:43:10;16.95;;;9.18;;
55270;SDS011;41132;47.162;9.470;2022-12-18T11:45:43;16.33;;;8.30;;
55270;SDS011;41132;47.162;9.470;2022-12-18T11:50:51;28.42;;;8.45;;
55270;SDS011;41132;47.162;9.470;2022-12-18T11:53:18;15.00;;;8.55;;
55270;SDS011;41132;47.162;9.470;2022-12-18T11:58:41;13.85;;;8.52;;
55270;SDS011;41132;47.162;9.470;2022-12-18T12:01:14;30.02;;;9.02;;
55270;SDS011;41132;47.162;9.470;2022-12-18T12:07:12;18.30;;;9.70;;
55270;SDS011;41132;47.162;9.470;2022-12-18T12:09:56;21.17;;;9.80;;
55270;SDS011;41132;47.162;9.470;2022-12-18T12:16:14;33.45;;;10.30;;
55270;SDS011;41132;47.162;9.470;2022-12-18T12:26:18;33.13;;;9.63;;
55270;SDS011;41132;47.162;9.470;2022-12-18T12:28:50;18.73;;;9.90;;
55270;SDS011;41132;47.162;9.470;2022-12-18T12:34:06;15.68;;;9.55;;
55270;SDS011;41132;47.162;9.470;2022-12-18T12:37:01;19.33;;;10.82;;
55270;SDS011;41132;47.162;9.470;2022-12-18T12:39:38;18.80;;;10.48;;
55270;SDS011;41132;47.162;9.470;2022-12-18T12:42:12;17.98;;;9.73;;
55270;SDS011;41132;47.162;9.470;2022-12-18T12:45:03;17.98;;;9.80;;
55270;SDS011;41132;47.162;9.470;2022-12-18T12:47:38;22.13;;;11.18;;
55270;SDS011;41132;47.162;9.470;2022-12-18T12:50:11;23.65;;;11.20;;
55270;SDS011;41132;47.162;9.470;2022-12-18T12:52:42;20.17;;;10.30;;
55270;SDS011;41132;47.162;9.470;2022-12-18T12:55:16;19.73;;;11.55;;
55270;SDS011;41132;47.162;9.470;2022-12-18T12:57:58;18.75;;;10.60;;
55270;SDS011;41132;47.162;9.470;2022-12-18T13:06:04;25.02;;;12.63;;
55270;SDS011;41132;47.162;9.470;2022-12-18T13:08:51;20.38;;;11.38;;
55270;SDS011;41132;47.162;9.470;2022-12-18T13:11:30;21.30;;;10.07;;
55270;SDS011;41132;47.162;9.470;2022-12-18T13:14:36;19.98;;;10.48;;
55270;SDS011;41132;47.162;9.470;2022-12-18T13:19:48;23.48;;;10.95;;
55270;SDS011;41132;47.162;9.470;2022-12-18T13:22:31;23.02;;;11.18;;
55270;SDS011;41132;47.162;9.470;2022-12-18T13:24:59;19.15;;;11.05;;
55270;SDS011;41132;47.162;9.470;2022-12-18T13:30:33;21.15;;;10.85;;
55270;SDS011;41132;47.162;9.470;2022-12-18T13:43:40;20.05;;;11.30;;
55270;SDS011;41132;47.162;9.470;2022-12-18T13:46:24;26.55;;;11.38;;
55270;SDS011;41132;47.162;9.470;2022-12-18T13:51:32;19.17;;;10.73;;
55270;SDS011;41132;47.162;9.470;2022-12-18T13:56:48;20.02;;;10.60;;
55270;SDS011;41132;47.162;9.470;2022-12-18T13:59:15;20.42;;;10.70;;
55270;SDS011;41132;47.162;9.470;2022-12-18T14:01:43;19.45;;;11.50;;
55270;SDS011;41132;47.162;9.470;2022-12-18T14:04:29;18.63;;;10.43;;
55270;SDS011;41132;47.162;9.470;2022-12-18T14:07:04;20.52;;;10.32;;
55270;SDS011;41132;47.162;9.470;2022-12-18T14:09:40;20.27;;;11.02;;
55270;SDS011;41132;47.162;9.470;2022-12-18T14:12:13;20.90;;;10.88;;
